createdAt,value
2022-12-23T00:00:44.220Z,96926.00
2022-12-23T00:03:12.153Z,96925.00
2022-12-23T00:05:40.332Z,96924.00
2022-12-23T00:08:08.711Z,96925.00
2022-12-23T00:10:39.884Z,96933.00
2022-12-23T00:13:26.914Z,96914.00
2022-12-23T00:16:08.301Z,96914.00
2022-12-23T00:18:36.080Z,96914.00
2022-12-23T00:21:10.417Z,96905.00
2022-12-23T00:23:41.103Z,96918.00
2022-12-23T00:26:20.363Z,96901.00
2022-12-23T00:28:47.711Z,96896.00
2022-12-23T00:31:18.713Z,96890.00
2022-12-23T00:33:51.303Z,96884.00
2022-12-23T00:36:28.935Z,96879.00
2022-12-23T00:39:18.391Z,96862.00
2022-12-23T00:42:04.553Z,96858.00
2022-12-23T00:44:31.700Z,96848.00
2022-12-23T00:46:58.828Z,96850.00
2022-12-23T00:49:44.162Z,96849.00
2022-12-23T00:52:15.629Z,96852.00
2022-12-23T00:54:43.454Z,96855.00
2022-12-23T00:57:10.803Z,96869.00
2022-12-23T00:59:38.031Z,96866.00
2022-12-23T01:02:23.777Z,96865.00
2022-12-23T01:05:09.533Z,96867.00
2022-12-23T01:07:36.892Z,96889.00
2022-12-23T01:10:04.480Z,96880.00
2022-12-23T01:12:31.526Z,96880.00
2022-12-23T01:14:58.831Z,96877.00
2022-12-23T01:17:25.946Z,96881.00
2022-12-23T01:19:53.051Z,96871.00
2022-12-23T01:22:20.158Z,96867.00
2022-12-23T01:24:47.229Z,96863.00
2022-12-23T01:27:14.263Z,96857.00
2022-12-23T01:29:41.389Z,96838.00
2022-12-23T01:32:08.475Z,96846.00
2022-12-23T01:34:37.338Z,96830.00
2022-12-23T01:37:05.139Z,96834.00
2022-12-23T01:39:32.261Z,96828.00
2022-12-23T01:42:17.809Z,96841.00
2022-12-23T01:45:25.270Z,96838.00
2022-12-23T01:48:26.998Z,96825.00
2022-12-23T01:51:01.760Z,96834.00
2022-12-23T01:53:36.348Z,96830.00
2022-12-23T01:56:12.036Z,96840.00
2022-12-23T01:58:47.305Z,96844.00
2022-12-23T02:01:33.315Z,96834.00
2022-12-23T02:04:06.360Z,96846.00
2022-12-23T02:07:00.551Z,96844.00
2022-12-23T02:09:36.789Z,96845.00
2022-12-23T02:12:34.037Z,96835.00
2022-12-23T02:15:33.815Z,96839.00
2022-12-23T02:18:53.845Z,96828.00
2022-12-23T02:21:46.649Z,96829.00
2022-12-23T02:24:39.753Z,96819.00
2022-12-23T02:27:25.151Z,96826.00
2022-12-23T02:30:20.664Z,96828.00
2022-12-23T02:33:27.359Z,96818.00
2022-12-23T02:36:18.967Z,96812.00
2022-12-23T02:39:03.131Z,96824.00
2022-12-23T02:42:01.624Z,96820.00
2022-12-23T02:44:41.566Z,96817.00
2022-12-23T02:47:14.728Z,96805.00
2022-12-23T02:49:50.215Z,96804.00
2022-12-23T02:52:21.649Z,96809.00
2022-12-23T02:54:57.632Z,96807.00
2022-12-23T02:57:31.565Z,96816.00
2022-12-23T03:00:00.567Z,96828.00
2022-12-23T03:02:27.917Z,96813.00
2022-12-23T03:04:55.100Z,96800.00
2022-12-23T03:07:33.237Z,96815.00
2022-12-23T03:10:28.103Z,96817.00
2022-12-23T03:13:36.380Z,96824.00
2022-12-23T03:16:11.233Z,96828.00
2022-12-23T03:18:47.331Z,96821.00
2022-12-23T03:21:48.790Z,96813.00
2022-12-23T03:24:30.037Z,96814.00
2022-12-23T03:27:18.369Z,96822.00
2022-12-23T03:29:58.277Z,96835.00
2022-12-23T03:32:28.895Z,96825.00
2022-12-23T03:34:59.428Z,96825.00
2022-12-23T03:37:30.437Z,96826.00
2022-12-23T03:40:16.187Z,96829.00
2022-12-23T03:42:45.327Z,96821.00
2022-12-23T03:45:38.612Z,96829.00
2022-12-23T03:48:20.041Z,96831.00
2022-12-23T03:50:54.283Z,96814.00
2022-12-23T03:53:28.540Z,96819.00
2022-12-23T03:56:10.266Z,96816.00
2022-12-23T03:58:43.437Z,96817.00
2022-12-23T04:01:21.846Z,96819.00
2022-12-23T04:04:08.452Z,96816.00
2022-12-23T04:07:25.582Z,96806.00
2022-12-23T04:09:54.247Z,96810.00
2022-12-23T04:12:24.967Z,96811.00
2022-12-23T04:14:52.365Z,96816.00
2022-12-23T04:17:20.377Z,96812.00
2022-12-23T04:19:47.818Z,96807.00
2022-12-23T04:22:16.715Z,96804.00
2022-12-23T04:24:43.809Z,96816.00
2022-12-23T04:27:14.441Z,96817.00
2022-12-23T04:29:41.763Z,96814.00
2022-12-23T04:32:09.139Z,96811.00
2022-12-23T04:34:37.028Z,96812.00
2022-12-23T04:37:04.325Z,96826.00
2022-12-23T04:39:31.465Z,96812.00
2022-12-23T04:41:58.526Z,96811.00
2022-12-23T04:44:25.581Z,96802.00
2022-12-23T04:46:52.792Z,96808.00
2022-12-23T04:49:19.975Z,96816.00
2022-12-23T04:51:47.112Z,96816.00
2022-12-23T04:54:14.233Z,96814.00
2022-12-23T04:56:41.330Z,96817.00
2022-12-23T04:59:08.593Z,96820.00
2022-12-23T05:01:35.873Z,96808.00
2022-12-23T05:04:02.962Z,96814.00
2022-12-23T05:06:29.991Z,96809.00
2022-12-23T05:08:57.104Z,96809.00
2022-12-23T05:11:24.119Z,96824.00
2022-12-23T05:13:51.161Z,96818.00
2022-12-23T05:16:18.311Z,96828.00
2022-12-23T05:18:45.445Z,96831.00
2022-12-23T05:21:12.972Z,96820.00
2022-12-23T05:23:40.277Z,96818.00
2022-12-23T05:26:07.402Z,96815.00
2022-12-23T05:28:34.701Z,96811.00
2022-12-23T05:31:07.618Z,96813.00
2022-12-23T05:33:35.692Z,96821.00
2022-12-23T05:36:03.632Z,96823.00
2022-12-23T05:38:31.141Z,96823.00
2022-12-23T05:40:58.473Z,96818.00
2022-12-23T05:43:25.741Z,96816.00
2022-12-23T05:45:52.951Z,96818.00
2022-12-23T05:48:20.070Z,96823.00
2022-12-23T05:50:51.259Z,96824.00
2022-12-23T05:53:19.280Z,96824.00
2022-12-23T05:55:47.317Z,96828.00
2022-12-23T05:58:14.757Z,96828.00
2022-12-23T06:00:41.893Z,96832.00
2022-12-23T06:03:09.117Z,96838.00
2022-12-23T06:05:39.436Z,96839.00
2022-12-23T06:08:06.667Z,96841.00
2022-12-23T06:10:33.681Z,96837.00
2022-12-23T06:13:00.756Z,96846.00
2022-12-23T06:15:27.866Z,96850.00
2022-12-23T06:17:56.217Z,96848.00
2022-12-23T06:20:23.264Z,96855.00
2022-12-23T06:22:50.364Z,96848.00
2022-12-23T06:25:17.510Z,96850.00
2022-12-23T06:27:44.677Z,96844.00
2022-12-23T06:30:12.503Z,96854.00
2022-12-23T06:32:39.982Z,96858.00
2022-12-23T06:35:08.745Z,96860.00
2022-12-23T06:37:35.886Z,96856.00
2022-12-23T06:40:02.977Z,96865.00
2022-12-23T06:42:30.117Z,96869.00
2022-12-23T06:44:57.103Z,96876.00
2022-12-23T06:47:24.174Z,96886.00
2022-12-23T06:49:51.312Z,96890.00
2022-12-23T06:52:18.345Z,96897.00
2022-12-23T06:54:45.377Z,96898.00
2022-12-23T06:57:12.543Z,96893.00
2022-12-23T06:59:39.586Z,96904.00
2022-12-23T07:02:07.536Z,96903.00
2022-12-23T07:04:34.732Z,96914.00
2022-12-23T07:07:01.746Z,96922.00
2022-12-23T07:09:28.838Z,96923.00
2022-12-23T07:11:56.065Z,96923.00
2022-12-23T07:14:23.115Z,96934.00
2022-12-23T07:16:50.229Z,96927.00
2022-12-23T07:19:17.288Z,96931.00
2022-12-23T07:21:44.407Z,96923.00
2022-12-23T07:24:11.607Z,96936.00
2022-12-23T07:26:38.684Z,96933.00
2022-12-23T07:29:05.762Z,96922.00
2022-12-23T07:31:32.819Z,96934.00
2022-12-23T07:33:59.927Z,96927.00
2022-12-23T07:36:27.059Z,96934.00
2022-12-23T07:38:54.163Z,96943.00
2022-12-23T07:41:21.209Z,96940.00
2022-12-23T07:43:48.295Z,96946.00
2022-12-23T07:46:15.427Z,96961.00
2022-12-23T07:48:42.897Z,96961.00
2022-12-23T07:51:10.300Z,96942.00
2022-12-23T07:53:37.397Z,96955.00
2022-12-23T07:56:04.995Z,96953.00
2022-12-23T07:58:32.143Z,96953.00
2022-12-23T08:01:05.682Z,96951.00
2022-12-23T08:03:33.079Z,96955.00
2022-12-23T08:06:12.732Z,96955.00
2022-12-23T08:08:42.255Z,96962.00
2022-12-23T08:11:11.779Z,96972.00
2022-12-23T08:13:43.062Z,96970.00
2022-12-23T08:16:11.778Z,96970.00
2022-12-23T08:18:41.511Z,96983.00
2022-12-23T08:21:19.173Z,96975.00
2022-12-23T08:23:47.631Z,96968.00
2022-12-23T08:26:19.698Z,96968.00
2022-12-23T08:28:47.312Z,96974.00
2022-12-23T08:31:22.767Z,96972.00
2022-12-23T08:33:54.518Z,96973.00
2022-12-23T08:36:31.772Z,96980.00
2022-12-23T08:39:02.567Z,96980.00
2022-12-23T08:41:34.247Z,96970.00
2022-12-23T08:44:01.511Z,96973.00
2022-12-23T08:46:29.227Z,96979.00
2022-12-23T08:48:57.063Z,96986.00
2022-12-23T08:51:25.716Z,96972.00
2022-12-23T08:54:00.828Z,96979.00
2022-12-23T08:56:39.327Z,96981.00
2022-12-23T08:59:07.159Z,96982.00
2022-12-23T09:01:35.065Z,96978.00
2022-12-23T09:04:04.825Z,96980.00
2022-12-23T09:06:41.580Z,96983.00
2022-12-23T09:09:11.557Z,96991.00
2022-12-23T09:11:39.127Z,96981.00
2022-12-23T09:14:07.366Z,96982.00
2022-12-23T09:16:34.616Z,96987.00
2022-12-23T09:19:01.873Z,96988.00
2022-12-23T09:21:29.439Z,96980.00
2022-12-23T09:23:56.525Z,96989.00
2022-12-23T09:26:27.564Z,96998.00
2022-12-23T09:28:56.421Z,96998.00
2022-12-23T09:31:26.683Z,96993.00
2022-12-23T09:33:57.032Z,96997.00
2022-12-23T09:36:24.124Z,97004.00
2022-12-23T09:38:56.567Z,97001.00
2022-12-23T09:41:55.483Z,97015.00
2022-12-23T09:44:53.182Z,97018.00
2022-12-23T09:47:25.080Z,97019.00
2022-12-23T09:50:06.621Z,97026.00
2022-12-23T09:52:39.503Z,97010.00
2022-12-23T09:55:11.303Z,97004.00
2022-12-23T09:58:03.690Z,96991.00
2022-12-23T10:01:11.557Z,96999.00
2022-12-23T10:04:11.118Z,96991.00
2022-12-23T10:06:40.262Z,97000.00
2022-12-23T10:09:09.939Z,96991.00
2022-12-23T10:11:44.314Z,97001.00
2022-12-23T10:14:29.084Z,96998.00
2022-12-23T10:17:02.691Z,96989.00
2022-12-23T10:19:44.588Z,96991.00
2022-12-23T10:22:33.087Z,96992.00
2022-12-23T10:25:02.434Z,96988.00
2022-12-23T10:27:35.846Z,97001.00
2022-12-23T10:30:53.545Z,97000.00
2022-12-23T10:33:26.948Z,96993.00
2022-12-23T10:36:20.612Z,97001.00
2022-12-23T10:39:15.051Z,97005.00
2022-12-23T10:42:26.900Z,97003.00
2022-12-23T10:45:34.271Z,97006.00
2022-12-23T10:48:50.915Z,97003.00
2022-12-23T10:51:59.341Z,96997.00
2022-12-23T10:54:36.407Z,96996.00
2022-12-23T10:57:06.647Z,96993.00
2022-12-23T10:59:36.855Z,96990.00
2022-12-23T11:02:12.649Z,96987.00
2022-12-23T11:04:42.646Z,96989.00
2022-12-23T11:10:19.741Z,96990.00
2022-12-23T11:12:51.190Z,96993.00
2022-12-23T11:15:40.088Z,96983.00
2022-12-23T11:18:21.217Z,96986.00
2022-12-23T11:21:06.523Z,96974.00
2022-12-23T11:23:37.199Z,96971.00
2022-12-23T11:26:07.005Z,96974.00
2022-12-23T11:28:39.061Z,96969.00
2022-12-23T11:31:12.065Z,96967.00
2022-12-23T11:33:49.255Z,96976.00
2022-12-23T11:36:24.092Z,96969.00
2022-12-23T11:39:04.555Z,96964.00
2022-12-23T11:41:47.672Z,96963.00
2022-12-23T11:44:24.414Z,96961.00
2022-12-23T11:46:52.051Z,96963.00
2022-12-23T11:49:31.488Z,96961.00
2022-12-23T11:52:14.992Z,96956.00
2022-12-23T11:54:54.560Z,96951.00
2022-12-23T11:57:44.683Z,96954.00
2022-12-23T12:00:30.584Z,96954.00
2022-12-23T12:03:01.095Z,96956.00
2022-12-23T12:05:40.862Z,96958.00
2022-12-23T12:08:16.654Z,96945.00
2022-12-23T12:10:43.813Z,96943.00
2022-12-23T12:13:40.384Z,96935.00
2022-12-23T12:16:31.341Z,96923.00
2022-12-23T12:19:05.919Z,96933.00
2022-12-23T12:21:38.336Z,96930.00
2022-12-23T12:24:37.030Z,96936.00
2022-12-23T12:27:07.749Z,96932.00
2022-12-23T12:29:49.159Z,96937.00
2022-12-23T12:32:40.979Z,96931.00
2022-12-23T12:35:21.851Z,96936.00
2022-12-23T12:38:05.435Z,96917.00
2022-12-23T12:40:42.570Z,96916.00
2022-12-23T12:43:27.898Z,96914.00
2022-12-23T12:46:39.844Z,96911.00
2022-12-23T12:49:33.164Z,96913.00
2022-12-23T12:52:12.978Z,96907.00
2022-12-23T12:54:54.735Z,96902.00
2022-12-23T12:57:24.319Z,96906.00
2022-12-23T13:00:03.633Z,96906.00
2022-12-23T13:03:15.624Z,96898.00
2022-12-23T13:06:27.701Z,96895.00
2022-12-23T13:09:12.839Z,96892.00
2022-12-23T13:12:05.324Z,96886.00
2022-12-23T13:14:55.564Z,96881.00
2022-12-23T13:17:36.276Z,96880.00
2022-12-23T13:20:22.243Z,96876.00
2022-12-23T13:22:54.894Z,96875.00
2022-12-23T13:25:30.462Z,96875.00
2022-12-23T13:28:40.797Z,96869.00
2022-12-23T13:31:42.951Z,96859.00
2022-12-23T13:34:30.972Z,96852.00
2022-12-23T13:37:27.836Z,96852.00
2022-12-23T13:40:00.794Z,96854.00
2022-12-23T13:42:39.689Z,96862.00
2022-12-23T13:45:13.939Z,96859.00
2022-12-23T13:47:53.613Z,96858.00
2022-12-23T13:50:25.924Z,96856.00
2022-12-23T13:53:23.226Z,96860.00
2022-12-23T13:56:17.823Z,96858.00
2022-12-23T13:58:49.318Z,96851.00
2022-12-23T14:01:16.343Z,96850.00
2022-12-23T14:03:43.956Z,96846.00
2022-12-23T14:06:33.781Z,96852.00
2022-12-23T14:09:02.131Z,96848.00
2022-12-23T14:11:32.066Z,96849.00
2022-12-23T14:14:02.851Z,96844.00
2022-12-23T14:17:00.876Z,96842.00
2022-12-23T14:19:37.071Z,96838.00
2022-12-23T14:22:40.221Z,96835.00
2022-12-23T14:25:19.221Z,96836.00
2022-12-23T14:28:24.986Z,96833.00
2022-12-23T14:30:52.292Z,96825.00
2022-12-23T14:33:27.571Z,96835.00
2022-12-23T14:36:28.666Z,96825.00
2022-12-23T14:39:14.124Z,96828.00
2022-12-23T14:41:52.588Z,96831.00
2022-12-23T14:44:37.796Z,96832.00
2022-12-23T14:47:30.205Z,96836.00
2022-12-23T14:49:57.463Z,96839.00
2022-12-23T14:52:48.025Z,96841.00
2022-12-23T14:55:32.339Z,96847.00
2022-12-23T14:58:10.385Z,96844.00
2022-12-23T15:01:08.916Z,96836.00
2022-12-23T15:03:53.280Z,96835.00
2022-12-23T15:06:42.597Z,96824.00
2022-12-23T15:09:26.079Z,96840.00
2022-12-23T15:11:55.654Z,96842.00
2022-12-23T15:14:40.173Z,96834.00
2022-12-23T15:17:29.032Z,96832.00
2022-12-23T15:20:15.718Z,96835.00
2022-12-23T15:22:45.476Z,96832.00
2022-12-23T15:25:34.324Z,96836.00
2022-12-23T15:28:03.647Z,96829.00
2022-12-23T15:30:37.071Z,96832.00
2022-12-23T15:33:27.913Z,96835.00
2022-12-23T15:35:55.170Z,96838.00
2022-12-23T15:38:34.775Z,96835.00
2022-12-23T15:41:13.849Z,96842.00
2022-12-23T15:43:42.252Z,96841.00
2022-12-23T15:46:20.786Z,96846.00
2022-12-23T15:48:50.839Z,96833.00
2022-12-23T15:52:08.055Z,96832.00
2022-12-23T15:54:45.749Z,96828.00
2022-12-23T15:57:18.617Z,96837.00
2022-12-23T15:59:46.089Z,96830.00
2022-12-23T16:02:50.177Z,96833.00
2022-12-23T16:05:08.047Z,96827.00
2022-12-23T16:07:41.432Z,96833.00
2022-12-23T16:10:20.943Z,96836.00
2022-12-23T16:12:52.580Z,96834.00
2022-12-23T16:15:27.888Z,96839.00
2022-12-23T16:18:20.675Z,96830.00
2022-12-23T16:20:56.209Z,96829.00
2022-12-23T16:23:24.682Z,96832.00
2022-12-23T16:25:53.573Z,96813.00
2022-12-23T16:28:31.245Z,96816.00
2022-12-23T16:30:58.850Z,96807.00
2022-12-23T16:33:36.082Z,96805.00
2022-12-23T16:36:26.773Z,96813.00
2022-12-23T16:39:22.252Z,96806.00
2022-12-23T16:41:50.665Z,96811.00
2022-12-23T16:44:17.950Z,96813.00
2022-12-23T16:46:48.928Z,96810.00
2022-12-23T16:49:20.057Z,96804.00
2022-12-23T16:51:48.095Z,96806.00
2022-12-23T16:54:19.095Z,96808.00
2022-12-23T16:56:55.817Z,96806.00
2022-12-23T16:59:24.895Z,96797.00
2022-12-23T17:01:53.696Z,96807.00
2022-12-23T17:04:23.679Z,96804.00
2022-12-23T17:06:50.747Z,96793.00
2022-12-23T17:09:17.954Z,96796.00
2022-12-23T17:11:53.080Z,96800.00
2022-12-23T17:14:23.613Z,96798.00
2022-12-23T17:16:51.652Z,96806.00
2022-12-23T17:19:28.858Z,96802.00
2022-12-23T17:22:03.328Z,96799.00
2022-12-23T17:24:31.742Z,96810.00
2022-12-23T17:26:58.837Z,96800.00
2022-12-23T17:29:26.267Z,96797.00
2022-12-23T17:31:53.649Z,96803.00
2022-12-23T17:34:24.245Z,96794.00
2022-12-23T17:36:51.692Z,96794.00
2022-12-23T17:39:20.896Z,96794.00
2022-12-23T17:41:48.834Z,96785.00
2022-12-23T17:44:17.438Z,96783.00
2022-12-23T17:46:46.591Z,96781.00
2022-12-23T17:49:13.930Z,96788.00
2022-12-23T17:51:42.677Z,96783.00
2022-12-23T17:54:26.299Z,96800.00
2022-12-23T17:56:53.463Z,96792.00
2022-12-23T17:59:21.061Z,96790.00
2022-12-23T18:01:48.306Z,96785.00
2022-12-23T18:04:15.653Z,96785.00
2022-12-23T18:06:42.669Z,96796.00
2022-12-23T18:09:09.748Z,96779.00
2022-12-23T18:11:41.490Z,96785.00
2022-12-23T18:14:28.108Z,96784.00
2022-12-23T18:16:55.395Z,96789.00
2022-12-23T18:19:22.540Z,96784.00
2022-12-23T18:21:50.589Z,96787.00
2022-12-23T18:24:18.338Z,96776.00
2022-12-23T18:26:46.278Z,96767.00
2022-12-23T18:29:13.506Z,96769.00
2022-12-23T18:31:51.040Z,96764.00
2022-12-23T18:34:19.854Z,96760.00
2022-12-23T18:36:48.304Z,96746.00
2022-12-23T18:39:15.690Z,96756.00
2022-12-23T18:41:42.743Z,96750.00
2022-12-23T18:44:19.484Z,96756.00
2022-12-23T18:46:47.646Z,96751.00
2022-12-23T18:49:14.718Z,96755.00
2022-12-23T18:51:41.803Z,96751.00
2022-12-23T18:54:17.004Z,96757.00
2022-12-23T18:56:44.555Z,96753.00
2022-12-23T18:59:27.375Z,96759.00
2022-12-23T19:01:57.769Z,96756.00
2022-12-23T19:04:26.627Z,96761.00
2022-12-23T19:06:55.757Z,96767.00
2022-12-23T19:09:24.676Z,96764.00
2022-12-23T19:11:54.098Z,96750.00
2022-12-23T19:14:21.489Z,96760.00
2022-12-23T19:16:52.080Z,96757.00
2022-12-23T19:19:20.822Z,96763.00
2022-12-23T19:21:47.921Z,96755.00
2022-12-23T19:24:14.984Z,96755.00
2022-12-23T19:26:42.100Z,96760.00
2022-12-23T19:29:09.425Z,96752.00
2022-12-23T19:31:36.573Z,96749.00
2022-12-23T19:34:03.660Z,96746.00
2022-12-23T19:36:30.991Z,96754.00
2022-12-23T19:38:58.823Z,96748.00
2022-12-23T19:41:26.137Z,96749.00
2022-12-23T19:43:53.274Z,96761.00
2022-12-23T19:46:20.386Z,96759.00
2022-12-23T19:48:54.355Z,96766.00
2022-12-23T19:51:21.457Z,96765.00
2022-12-23T19:53:51.504Z,96771.00
2022-12-23T19:56:23.222Z,96777.00
2022-12-23T19:58:50.975Z,96770.00
2022-12-23T20:01:25.660Z,96765.00
2022-12-23T20:03:55.317Z,96767.00
2022-12-23T20:06:35.661Z,96770.00
2022-12-23T20:09:06.551Z,96774.00
2022-12-23T20:11:37.633Z,96766.00
2022-12-23T20:14:05.489Z,96777.00
2022-12-23T20:16:33.668Z,96776.00
2022-12-23T20:19:00.866Z,96772.00
2022-12-23T20:21:28.121Z,96780.00
2022-12-23T20:23:55.545Z,96783.00
2022-12-23T20:26:23.932Z,96787.00
2022-12-23T20:28:51.833Z,96784.00
2022-12-23T20:31:23.610Z,96785.00
2022-12-23T20:33:51.600Z,96777.00
2022-12-23T20:36:23.616Z,96783.00
2022-12-23T20:38:52.387Z,96786.00
2022-12-23T20:41:22.716Z,96776.00
2022-12-23T20:44:23.360Z,96779.00
2022-12-23T20:46:37.549Z,96789.00
2022-12-23T20:49:04.682Z,96782.00
2022-12-23T20:51:31.740Z,96788.00
2022-12-23T20:54:00.091Z,96785.00
2022-12-23T20:56:29.400Z,96781.00
2022-12-23T20:59:01.685Z,96782.00
2022-12-23T21:01:38.678Z,96789.00
2022-12-23T21:04:12.008Z,96788.00
2022-12-23T21:06:40.068Z,96799.00
2022-12-23T21:09:11.189Z,96794.00
2022-12-23T21:11:41.912Z,96798.00
2022-12-23T21:14:10.678Z,96807.00
2022-12-23T21:16:39.358Z,96809.00
2022-12-23T21:19:17.473Z,96839.00
2022-12-23T21:21:45.025Z,96867.00
2022-12-23T21:24:12.651Z,96909.00
2022-12-23T21:26:40.003Z,96928.00
2022-12-23T21:29:09.517Z,96926.00
2022-12-23T21:31:40.917Z,96912.00
2022-12-23T21:34:09.092Z,96908.00
2022-12-23T21:36:38.916Z,96883.00
2022-12-23T21:39:08.018Z,96890.00
2022-12-23T21:41:38.788Z,96881.00
2022-12-23T21:44:06.445Z,96889.00
2022-12-23T21:46:34.300Z,96875.00
2022-12-23T21:49:01.801Z,96887.00
2022-12-23T21:51:39.510Z,96886.00
2022-12-23T21:54:07.336Z,96889.00
2022-12-23T21:56:34.599Z,96893.00
2022-12-23T21:59:10.502Z,96911.00
2022-12-23T22:01:37.599Z,96926.00
2022-12-23T22:04:05.218Z,96894.00
2022-12-23T22:06:39.146Z,96897.00
2022-12-23T22:09:07.558Z,96901.00
2022-12-23T22:11:36.746Z,96915.00
2022-12-23T22:14:06.829Z,96920.00
2022-12-23T22:16:35.495Z,96909.00
2022-12-23T22:19:04.381Z,96906.00
2022-12-23T22:21:32.913Z,96905.00
2022-12-23T22:24:00.569Z,96919.00
2022-12-23T22:26:31.328Z,96927.00
2022-12-23T22:29:01.949Z,96918.00
2022-12-23T22:31:47.998Z,96915.00
2022-12-23T22:34:20.009Z,96918.00
2022-12-23T22:36:48.520Z,96924.00
2022-12-23T22:39:21.180Z,96930.00
2022-12-23T22:41:51.153Z,96927.00
2022-12-23T22:44:18.935Z,96927.00
2022-12-23T22:46:46.300Z,96927.00
2022-12-23T22:49:16.747Z,96947.00
2022-12-23T22:51:44.454Z,96947.00
2022-12-23T22:54:11.863Z,96938.00
2022-12-23T22:56:38.982Z,96959.00
2022-12-23T22:59:06.316Z,96975.00
2022-12-23T23:01:35.877Z,96984.00
2022-12-23T23:04:04.589Z,96970.00
2022-12-23T23:06:38.138Z,96961.00
2022-12-23T23:09:13.306Z,96948.00
2022-12-23T23:11:41.151Z,96957.00
2022-12-23T23:14:08.563Z,96968.00
2022-12-23T23:16:35.824Z,96966.00
2022-12-23T23:19:04.689Z,96958.00
2022-12-23T23:21:32.548Z,96961.00
2022-12-23T23:23:59.649Z,96956.00
2022-12-23T23:26:27.539Z,96957.00
2022-12-23T23:28:56.126Z,96971.00
2022-12-23T23:34:11.537Z,96968.00
2022-12-23T23:36:38.838Z,96982.00
2022-12-23T23:39:06.026Z,96991.00
2022-12-23T23:41:33.149Z,96988.00
2022-12-23T23:44:00.214Z,96989.00
2022-12-23T23:46:27.568Z,96986.00
2022-12-23T23:48:54.711Z,96988.00
2022-12-23T23:51:21.810Z,96983.00
2022-12-23T23:53:49.098Z,96993.00
2022-12-23T23:56:22.030Z,96997.00
2022-12-23T23:58:52.079Z,96993.00
